sensor_id;sensor_type;location;lat;lon;timestamp;P1;durP1;ratioP1;P2;durP2;ratioP2
22040;SDS011;11184;52.444;13.578;2022-11-20T00:02:19;18.95;;;15.57;;
22040;SDS011;11184;52.444;13.578;2022-11-20T00:05:03;20.45;;;17.02;;
22040;SDS011;11184;52.444;13.578;2022-11-20T00:07:48;21.63;;;17.55;;
22040;SDS011;11184;52.444;13.578;2022-11-20T00:10:35;21.52;;;17.50;;
22040;SDS011;11184;52.444;13.578;2022-11-20T00:13:20;25.90;;;16.88;;
22040;SDS011;11184;52.444;13.578;2022-11-20T00:16:05;20.92;;;16.92;;
22040;SDS011;11184;52.444;13.578;2022-11-20T00:18:50;19.70;;;14.88;;
22040;SDS011;11184;52.444;13.578;2022-11-20T00:21:35;19.50;;;15.18;;
22040;SDS011;11184;52.444;13.578;2022-11-20T00:24:19;20.92;;;17.25;;
22040;SDS011;11184;52.444;13.578;2022-11-20T00:27:04;25.08;;;17.35;;
22040;SDS011;11184;52.444;13.578;2022-11-20T00:29:49;21.50;;;17.17;;
22040;SDS011;11184;52.444;13.578;2022-11-20T00:32:33;20.15;;;14.68;;
22040;SDS011;11184;52.444;13.578;2022-11-20T00:35:18;21.00;;;16.75;;
22040;SDS011;11184;52.444;13.578;2022-11-20T00:38:03;21.38;;;16.67;;
22040;SDS011;11184;52.444;13.578;2022-11-20T00:40:53;20.90;;;16.83;;
22040;SDS011;11184;52.444;13.578;2022-11-20T00:43:38;19.95;;;15.48;;
22040;SDS011;11184;52.444;13.578;2022-11-20T00:46:27;19.42;;;15.18;;
22040;SDS011;11184;52.444;13.578;2022-11-20T00:49:12;19.08;;;16.05;;
22040;SDS011;11184;52.444;13.578;2022-11-20T00:51:57;17.35;;;15.48;;
22040;SDS011;11184;52.444;13.578;2022-11-20T00:54:41;24.23;;;17.65;;
22040;SDS011;11184;52.444;13.578;2022-11-20T00:57:26;19.73;;;15.38;;
22040;SDS011;11184;52.444;13.578;2022-11-20T01:00:10;19.08;;;15.95;;
22040;SDS011;11184;52.444;13.578;2022-11-20T01:02:55;20.48;;;15.20;;
22040;SDS011;11184;52.444;13.578;2022-11-20T01:05:40;20.17;;;15.93;;
22040;SDS011;11184;52.444;13.578;2022-11-20T01:08:25;25.77;;;16.85;;
22040;SDS011;11184;52.444;13.578;2022-11-20T01:11:11;21.33;;;17.08;;
22040;SDS011;11184;52.444;13.578;2022-11-20T01:13:56;20.35;;;15.18;;
22040;SDS011;11184;52.444;13.578;2022-11-20T01:16:43;19.08;;;16.58;;
22040;SDS011;11184;52.444;13.578;2022-11-20T01:19:28;17.48;;;15.57;;
22040;SDS011;11184;52.444;13.578;2022-11-20T01:22:12;21.58;;;16.23;;
22040;SDS011;11184;52.444;13.578;2022-11-20T01:24:57;25.23;;;16.70;;
22040;SDS011;11184;52.444;13.578;2022-11-20T01:27:42;23.13;;;18.65;;
22040;SDS011;11184;52.444;13.578;2022-11-20T01:30:26;20.50;;;16.50;;
22040;SDS011;11184;52.444;13.578;2022-11-20T01:33:11;21.73;;;16.65;;
22040;SDS011;11184;52.444;13.578;2022-11-20T01:36:02;22.45;;;17.42;;
22040;SDS011;11184;52.444;13.578;2022-11-20T01:38:47;17.75;;;15.77;;
22040;SDS011;11184;52.444;13.578;2022-11-20T01:41:32;23.45;;;18.90;;
22040;SDS011;11184;52.444;13.578;2022-11-20T01:44:43;26.15;;;16.77;;
22040;SDS011;11184;52.444;13.578;2022-11-20T01:47:34;19.42;;;16.25;;
22040;SDS011;11184;52.444;13.578;2022-11-20T01:50:24;21.30;;;15.05;;
22040;SDS011;11184;52.444;13.578;2022-11-20T01:53:13;21.42;;;16.40;;
22040;SDS011;11184;52.444;13.578;2022-11-20T01:56:00;21.27;;;17.13;;
22040;SDS011;11184;52.444;13.578;2022-11-20T01:58:50;22.95;;;17.25;;
22040;SDS011;11184;52.444;13.578;2022-11-20T02:01:36;23.25;;;16.92;;
22040;SDS011;11184;52.444;13.578;2022-11-20T02:04:22;22.08;;;16.58;;
22040;SDS011;11184;52.444;13.578;2022-11-20T02:07:07;19.80;;;15.85;;
22040;SDS011;11184;52.444;13.578;2022-11-20T02:09:52;32.35;;;19.02;;
22040;SDS011;11184;52.444;13.578;2022-11-20T02:12:37;19.77;;;16.75;;
22040;SDS011;11184;52.444;13.578;2022-11-20T02:15:40;20.55;;;16.67;;
22040;SDS011;11184;52.444;13.578;2022-11-20T02:18:25;23.92;;;17.48;;
22040;SDS011;11184;52.444;13.578;2022-11-20T02:21:17;23.05;;;17.13;;
22040;SDS011;11184;52.444;13.578;2022-11-20T02:26:53;19.50;;;16.90;;
22040;SDS011;11184;52.444;13.578;2022-11-20T02:29:42;17.95;;;15.80;;
22040;SDS011;11184;52.444;13.578;2022-11-20T02:32:29;18.80;;;16.25;;
22040;SDS011;11184;52.444;13.578;2022-11-20T02:38:04;20.15;;;15.68;;
22040;SDS011;11184;52.444;13.578;2022-11-20T02:40:49;19.45;;;15.20;;
22040;SDS011;11184;52.444;13.578;2022-11-20T02:43:34;25.40;;;19.00;;
22040;SDS011;11184;52.444;13.578;2022-11-20T02:46:18;21.00;;;18.40;;
22040;SDS011;11184;52.444;13.578;2022-11-20T02:49:03;20.55;;;15.40;;
22040;SDS011;11184;52.444;13.578;2022-11-20T02:51:48;19.70;;;17.42;;
22040;SDS011;11184;52.444;13.578;2022-11-20T02:54:33;19.83;;;16.33;;
22040;SDS011;11184;52.444;13.578;2022-11-20T02:57:17;19.05;;;15.52;;
22040;SDS011;11184;52.444;13.578;2022-11-20T03:00:02;21.95;;;17.02;;
22040;SDS011;11184;52.444;13.578;2022-11-20T03:02:47;19.98;;;16.40;;
22040;SDS011;11184;52.444;13.578;2022-11-20T03:05:31;20.95;;;18.83;;
22040;SDS011;11184;52.444;13.578;2022-11-20T03:08:16;19.85;;;17.30;;
22040;SDS011;11184;52.444;13.578;2022-11-20T03:11:04;19.27;;;16.23;;
22040;SDS011;11184;52.444;13.578;2022-11-20T03:13:50;21.70;;;16.08;;
22040;SDS011;11184;52.444;13.578;2022-11-20T03:16:34;17.73;;;15.45;;
22040;SDS011;11184;52.444;13.578;2022-11-20T03:19:19;20.63;;;15.35;;
22040;SDS011;11184;52.444;13.578;2022-11-20T03:22:04;23.30;;;17.05;;
22040;SDS011;11184;52.444;13.578;2022-11-20T03:24:48;20.08;;;15.82;;
22040;SDS011;11184;52.444;13.578;2022-11-20T03:27:36;22.00;;;15.48;;
22040;SDS011;11184;52.444;13.578;2022-11-20T03:30:21;19.52;;;15.93;;
22040;SDS011;11184;52.444;13.578;2022-11-20T03:33:06;22.67;;;15.98;;
22040;SDS011;11184;52.444;13.578;2022-11-20T03:35:50;19.52;;;17.15;;
22040;SDS011;11184;52.444;13.578;2022-11-20T03:38:35;22.27;;;16.65;;
22040;SDS011;11184;52.444;13.578;2022-11-20T03:41:20;22.25;;;16.27;;
22040;SDS011;11184;52.444;13.578;2022-11-20T03:44:07;18.88;;;15.48;;
22040;SDS011;11184;52.444;13.578;2022-11-20T03:46:51;23.55;;;17.42;;
22040;SDS011;11184;52.444;13.578;2022-11-20T03:49:36;25.17;;;18.85;;
22040;SDS011;11184;52.444;13.578;2022-11-20T03:52:22;17.20;;;14.45;;
22040;SDS011;11184;52.444;13.578;2022-11-20T03:55:06;19.95;;;16.55;;
22040;SDS011;11184;52.444;13.578;2022-11-20T03:57:51;21.88;;;17.75;;
22040;SDS011;11184;52.444;13.578;2022-11-20T04:00:36;19.98;;;15.65;;
22040;SDS011;11184;52.444;13.578;2022-11-20T04:03:20;22.80;;;17.13;;
22040;SDS011;11184;52.444;13.578;2022-11-20T04:06:06;23.23;;;17.27;;
22040;SDS011;11184;52.444;13.578;2022-11-20T04:08:53;21.88;;;16.63;;
22040;SDS011;11184;52.444;13.578;2022-11-20T04:11:39;22.92;;;17.05;;
22040;SDS011;11184;52.444;13.578;2022-11-20T04:14:24;22.13;;;16.25;;
22040;SDS011;11184;52.444;13.578;2022-11-20T04:17:08;22.67;;;18.02;;
22040;SDS011;11184;52.444;13.578;2022-11-20T04:19:53;23.80;;;18.67;;
22040;SDS011;11184;52.444;13.578;2022-11-20T04:22:37;23.23;;;17.67;;
22040;SDS011;11184;52.444;13.578;2022-11-20T04:25:22;20.45;;;16.50;;
22040;SDS011;11184;52.444;13.578;2022-11-20T04:28:06;20.13;;;17.00;;
22040;SDS011;11184;52.444;13.578;2022-11-20T04:30:51;23.52;;;17.27;;
22040;SDS011;11184;52.444;13.578;2022-11-20T04:33:36;20.02;;;16.88;;
22040;SDS011;11184;52.444;13.578;2022-11-20T04:36:22;23.35;;;17.10;;
22040;SDS011;11184;52.444;13.578;2022-11-20T04:39:07;20.85;;;16.35;;
22040;SDS011;11184;52.444;13.578;2022-11-20T04:41:51;18.77;;;15.73;;
22040;SDS011;11184;52.444;13.578;2022-11-20T04:44:56;17.98;;;15.23;;
22040;SDS011;11184;52.444;13.578;2022-11-20T04:47:41;21.83;;;17.08;;
22040;SDS011;11184;52.444;13.578;2022-11-20T04:50:25;18.20;;;15.23;;
22040;SDS011;11184;52.444;13.578;2022-11-20T04:53:10;21.92;;;18.77;;
22040;SDS011;11184;52.444;13.578;2022-11-20T04:56:07;21.10;;;17.10;;
22040;SDS011;11184;52.444;13.578;2022-11-20T04:58:53;27.17;;;17.52;;
22040;SDS011;11184;52.444;13.578;2022-11-20T05:01:38;20.73;;;17.08;;
22040;SDS011;11184;52.444;13.578;2022-11-20T05:04:22;22.60;;;16.30;;
22040;SDS011;11184;52.444;13.578;2022-11-20T05:07:07;23.13;;;16.30;;
22040;SDS011;11184;52.444;13.578;2022-11-20T05:09:52;21.80;;;16.27;;
22040;SDS011;11184;52.444;13.578;2022-11-20T05:12:36;26.98;;;17.75;;
22040;SDS011;11184;52.444;13.578;2022-11-20T05:15:21;20.42;;;16.92;;
22040;SDS011;11184;52.444;13.578;2022-11-20T05:18:05;20.40;;;17.48;;
22040;SDS011;11184;52.444;13.578;2022-11-20T05:20:54;25.45;;;17.42;;
22040;SDS011;11184;52.444;13.578;2022-11-20T05:23:39;22.70;;;18.17;;
22040;SDS011;11184;52.444;13.578;2022-11-20T05:26:24;20.15;;;15.50;;
22040;SDS011;11184;52.444;13.578;2022-11-20T05:29:10;22.00;;;18.00;;
22040;SDS011;11184;52.444;13.578;2022-11-20T05:31:55;21.00;;;17.17;;
22040;SDS011;11184;52.444;13.578;2022-11-20T05:34:40;26.65;;;20.40;;
22040;SDS011;11184;52.444;13.578;2022-11-20T05:37:24;19.80;;;17.70;;
22040;SDS011;11184;52.444;13.578;2022-11-20T05:40:09;25.08;;;18.23;;
22040;SDS011;11184;52.444;13.578;2022-11-20T05:42:54;22.38;;;18.60;;
22040;SDS011;11184;52.444;13.578;2022-11-20T05:45:39;21.88;;;17.80;;
22040;SDS011;11184;52.444;13.578;2022-11-20T05:48:23;20.70;;;17.70;;
22040;SDS011;11184;52.444;13.578;2022-11-20T05:51:09;24.20;;;18.55;;
22040;SDS011;11184;52.444;13.578;2022-11-20T05:53:55;23.10;;;18.08;;
22040;SDS011;11184;52.444;13.578;2022-11-20T05:56:41;23.02;;;17.20;;
22040;SDS011;11184;52.444;13.578;2022-11-20T05:59:25;22.90;;;17.92;;
22040;SDS011;11184;52.444;13.578;2022-11-20T06:02:10;21.08;;;16.48;;
22040;SDS011;11184;52.444;13.578;2022-11-20T06:04:54;21.30;;;17.38;;
22040;SDS011;11184;52.444;13.578;2022-11-20T06:07:39;18.13;;;16.15;;
22040;SDS011;11184;52.444;13.578;2022-11-20T06:10:23;21.25;;;16.65;;
22040;SDS011;11184;52.444;13.578;2022-11-20T06:13:08;21.95;;;17.35;;
22040;SDS011;11184;52.444;13.578;2022-11-20T06:15:53;19.92;;;17.15;;
22040;SDS011;11184;52.444;13.578;2022-11-20T06:18:38;21.55;;;17.35;;
22040;SDS011;11184;52.444;13.578;2022-11-20T06:21:23;24.98;;;17.70;;
22040;SDS011;11184;52.444;13.578;2022-11-20T06:24:11;23.40;;;18.58;;
22040;SDS011;11184;52.444;13.578;2022-11-20T06:26:56;19.58;;;15.45;;
22040;SDS011;11184;52.444;13.578;2022-11-20T06:29:40;23.48;;;17.75;;
22040;SDS011;11184;52.444;13.578;2022-11-20T06:32:25;21.58;;;17.50;;
22040;SDS011;11184;52.444;13.578;2022-11-20T06:35:09;21.20;;;17.85;;
22040;SDS011;11184;52.444;13.578;2022-11-20T06:37:55;21.33;;;16.70;;
22040;SDS011;11184;52.444;13.578;2022-11-20T06:40:41;21.65;;;15.82;;
22040;SDS011;11184;52.444;13.578;2022-11-20T06:43:25;31.27;;;18.00;;
22040;SDS011;11184;52.444;13.578;2022-11-20T06:46:11;24.25;;;18.92;;
22040;SDS011;11184;52.444;13.578;2022-11-20T06:48:55;20.80;;;17.70;;
22040;SDS011;11184;52.444;13.578;2022-11-20T06:51:41;19.27;;;16.75;;
22040;SDS011;11184;52.444;13.578;2022-11-20T06:54:26;22.48;;;16.95;;
22040;SDS011;11184;52.444;13.578;2022-11-20T06:57:10;24.17;;;17.42;;
22040;SDS011;11184;52.444;13.578;2022-11-20T06:59:55;23.08;;;16.88;;
22040;SDS011;11184;52.444;13.578;2022-11-20T07:02:39;21.20;;;16.75;;
22040;SDS011;11184;52.444;13.578;2022-11-20T07:05:24;24.85;;;17.08;;
22040;SDS011;11184;52.444;13.578;2022-11-20T07:08:09;24.90;;;17.67;;
22040;SDS011;11184;52.444;13.578;2022-11-20T07:10:56;21.88;;;17.80;;
22040;SDS011;11184;52.444;13.578;2022-11-20T07:13:41;25.00;;;16.75;;
22040;SDS011;11184;52.444;13.578;2022-11-20T07:16:26;19.42;;;16.90;;
22040;SDS011;11184;52.444;13.578;2022-11-20T07:19:10;21.13;;;17.45;;
22040;SDS011;11184;52.444;13.578;2022-11-20T07:21:55;18.77;;;16.08;;
22040;SDS011;11184;52.444;13.578;2022-11-20T07:24:40;24.42;;;18.75;;
22040;SDS011;11184;52.444;13.578;2022-11-20T07:27:24;23.88;;;18.60;;
22040;SDS011;11184;52.444;13.578;2022-11-20T07:30:09;20.80;;;17.45;;
22040;SDS011;11184;52.444;13.578;2022-11-20T07:32:54;19.85;;;16.60;;
22040;SDS011;11184;52.444;13.578;2022-11-20T07:35:39;29.08;;;17.77;;
22040;SDS011;11184;52.444;13.578;2022-11-20T07:38:24;19.75;;;17.80;;
22040;SDS011;11184;52.444;13.578;2022-11-20T07:41:09;22.42;;;17.85;;
22040;SDS011;11184;52.444;13.578;2022-11-20T07:43:53;24.30;;;18.52;;
22040;SDS011;11184;52.444;13.578;2022-11-20T07:46:38;24.33;;;18.35;;
22040;SDS011;11184;52.444;13.578;2022-11-20T07:49:22;30.55;;;19.50;;
22040;SDS011;11184;52.444;13.578;2022-11-20T07:52:07;24.67;;;19.35;;
22040;SDS011;11184;52.444;13.578;2022-11-20T07:54:52;24.63;;;19.20;;
22040;SDS011;11184;52.444;13.578;2022-11-20T07:57:36;23.73;;;19.27;;
22040;SDS011;11184;52.444;13.578;2022-11-20T08:00:21;23.35;;;19.58;;
22040;SDS011;11184;52.444;13.578;2022-11-20T08:03:06;25.98;;;20.88;;
22040;SDS011;11184;52.444;13.578;2022-11-20T08:05:51;29.23;;;18.85;;
22040;SDS011;11184;52.444;13.578;2022-11-20T08:08:36;27.17;;;20.20;;
22040;SDS011;11184;52.444;13.578;2022-11-20T08:11:22;29.85;;;19.23;;
22040;SDS011;11184;52.444;13.578;2022-11-20T08:14:26;26.00;;;18.55;;
22040;SDS011;11184;52.444;13.578;2022-11-20T08:17:11;27.13;;;18.77;;
22040;SDS011;11184;52.444;13.578;2022-11-20T08:19:56;23.73;;;19.15;;
22040;SDS011;11184;52.444;13.578;2022-11-20T08:22:40;26.60;;;18.45;;
22040;SDS011;11184;52.444;13.578;2022-11-20T08:25:25;23.88;;;17.83;;
22040;SDS011;11184;52.444;13.578;2022-11-20T08:28:10;24.80;;;16.92;;
22040;SDS011;11184;52.444;13.578;2022-11-20T08:30:58;24.83;;;17.70;;
22040;SDS011;11184;52.444;13.578;2022-11-20T08:33:43;23.77;;;17.33;;
22040;SDS011;11184;52.444;13.578;2022-11-20T08:36:28;21.02;;;16.27;;
22040;SDS011;11184;52.444;13.578;2022-11-20T08:39:13;22.85;;;17.25;;
22040;SDS011;11184;52.444;13.578;2022-11-20T08:41:58;22.85;;;16.73;;
22040;SDS011;11184;52.444;13.578;2022-11-20T08:44:42;20.95;;;17.05;;
22040;SDS011;11184;52.444;13.578;2022-11-20T08:47:27;25.50;;;17.00;;
22040;SDS011;11184;52.444;13.578;2022-11-20T08:50:12;21.42;;;17.30;;
22040;SDS011;11184;52.444;13.578;2022-11-20T08:53:04;24.08;;;18.13;;
22040;SDS011;11184;52.444;13.578;2022-11-20T08:55:49;21.27;;;15.85;;
22040;SDS011;11184;52.444;13.578;2022-11-20T08:58:34;20.35;;;16.95;;
22040;SDS011;11184;52.444;13.578;2022-11-20T09:01:19;28.60;;;18.30;;
22040;SDS011;11184;52.444;13.578;2022-11-20T09:04:04;19.67;;;17.33;;
22040;SDS011;11184;52.444;13.578;2022-11-20T09:06:48;20.90;;;17.52;;
22040;SDS011;11184;52.444;13.578;2022-11-20T09:09:34;20.27;;;16.58;;
22040;SDS011;11184;52.444;13.578;2022-11-20T09:12:19;24.50;;;17.52;;
22040;SDS011;11184;52.444;13.578;2022-11-20T09:15:04;18.02;;;15.90;;
22040;SDS011;11184;52.444;13.578;2022-11-20T09:17:58;19.25;;;16.63;;
22040;SDS011;11184;52.444;13.578;2022-11-20T09:20:43;20.65;;;17.17;;
22040;SDS011;11184;52.444;13.578;2022-11-20T09:23:30;20.35;;;16.75;;
22040;SDS011;11184;52.444;13.578;2022-11-20T09:26:16;20.65;;;16.98;;
22040;SDS011;11184;52.444;13.578;2022-11-20T09:29:00;21.52;;;16.90;;
22040;SDS011;11184;52.444;13.578;2022-11-20T09:31:45;17.85;;;15.20;;
22040;SDS011;11184;52.444;13.578;2022-11-20T09:34:29;22.30;;;17.92;;
22040;SDS011;11184;52.444;13.578;2022-11-20T09:37:14;18.75;;;14.93;;
22040;SDS011;11184;52.444;13.578;2022-11-20T09:39:58;18.88;;;15.93;;
22040;SDS011;11184;52.444;13.578;2022-11-20T09:54:27;21.90;;;16.35;;
22040;SDS011;11184;52.444;13.578;2022-11-20T09:57:14;21.55;;;19.02;;
22040;SDS011;11184;52.444;13.578;2022-11-20T10:00:03;21.00;;;17.08;;
22040;SDS011;11184;52.444;13.578;2022-11-20T10:02:59;21.67;;;18.27;;
22040;SDS011;11184;52.444;13.578;2022-11-20T10:05:46;22.63;;;18.30;;
22040;SDS011;11184;52.444;13.578;2022-11-20T10:08:35;24.92;;;17.15;;
22040;SDS011;11184;52.444;13.578;2022-11-20T10:11:28;24.35;;;19.00;;
22040;SDS011;11184;52.444;13.578;2022-11-20T10:20:10;20.75;;;17.20;;
22040;SDS011;11184;52.444;13.578;2022-11-20T10:26:02;19.92;;;16.70;;
22040;SDS011;11184;52.444;13.578;2022-11-20T10:34:56;22.00;;;19.17;;
22040;SDS011;11184;52.444;13.578;2022-11-20T10:37:44;23.95;;;18.58;;
22040;SDS011;11184;52.444;13.578;2022-11-20T10:43:28;21.25;;;17.73;;
22040;SDS011;11184;52.444;13.578;2022-11-20T10:46:17;19.23;;;17.08;;
22040;SDS011;11184;52.444;13.578;2022-11-20T10:49:04;19.77;;;17.42;;
22040;SDS011;11184;52.444;13.578;2022-11-20T10:52:01;22.85;;;19.38;;
22040;SDS011;11184;52.444;13.578;2022-11-20T10:54:55;25.15;;;18.05;;
22040;SDS011;11184;52.444;13.578;2022-11-20T11:00:43;24.35;;;18.75;;
22040;SDS011;11184;52.444;13.578;2022-11-20T11:03:28;21.52;;;17.02;;
22040;SDS011;11184;52.444;13.578;2022-11-20T11:06:22;22.23;;;17.95;;
22040;SDS011;11184;52.444;13.578;2022-11-20T11:09:12;20.95;;;17.05;;
22040;SDS011;11184;52.444;13.578;2022-11-20T11:11:58;25.90;;;19.23;;
22040;SDS011;11184;52.444;13.578;2022-11-20T11:14:50;25.33;;;18.60;;
22040;SDS011;11184;52.444;13.578;2022-11-20T11:17:35;28.45;;;19.45;;
22040;SDS011;11184;52.444;13.578;2022-11-20T11:20:21;20.70;;;16.65;;
22040;SDS011;11184;52.444;13.578;2022-11-20T11:23:10;24.92;;;20.17;;
22040;SDS011;11184;52.444;13.578;2022-11-20T11:26:17;23.48;;;17.00;;
22040;SDS011;11184;52.444;13.578;2022-11-20T11:29:03;24.30;;;18.15;;
22040;SDS011;11184;52.444;13.578;2022-11-20T11:31:48;24.00;;;18.48;;
22040;SDS011;11184;52.444;13.578;2022-11-20T11:34:33;20.13;;;16.20;;
22040;SDS011;11184;52.444;13.578;2022-11-20T11:37:18;26.00;;;19.15;;
22040;SDS011;11184;52.444;13.578;2022-11-20T11:40:05;25.77;;;18.45;;
22040;SDS011;11184;52.444;13.578;2022-11-20T11:42:56;21.63;;;17.08;;
22040;SDS011;11184;52.444;13.578;2022-11-20T11:45:50;26.13;;;19.02;;
22040;SDS011;11184;52.444;13.578;2022-11-20T11:48:35;21.67;;;18.30;;
22040;SDS011;11184;52.444;13.578;2022-11-20T11:51:20;22.55;;;17.58;;
22040;SDS011;11184;52.444;13.578;2022-11-20T11:54:10;22.60;;;17.42;;
22040;SDS011;11184;52.444;13.578;2022-11-20T11:57:00;22.45;;;18.77;;
22040;SDS011;11184;52.444;13.578;2022-11-20T11:59:50;27.17;;;20.10;;
22040;SDS011;11184;52.444;13.578;2022-11-20T12:02:38;22.90;;;17.00;;
22040;SDS011;11184;52.444;13.578;2022-11-20T12:14:08;18.48;;;16.13;;
22040;SDS011;11184;52.444;13.578;2022-11-20T12:16:54;23.27;;;17.70;;
22040;SDS011;11184;52.444;13.578;2022-11-20T12:19:41;26.38;;;18.02;;
22040;SDS011;11184;52.444;13.578;2022-11-20T12:22:31;28.85;;;17.90;;
22040;SDS011;11184;52.444;13.578;2022-11-20T12:25:30;22.88;;;17.58;;
22040;SDS011;11184;52.444;13.578;2022-11-20T12:37:02;26.10;;;19.42;;
22040;SDS011;11184;52.444;13.578;2022-11-20T12:39:51;24.17;;;19.90;;
22040;SDS011;11184;52.444;13.578;2022-11-20T12:45:54;23.73;;;18.10;;
22040;SDS011;11184;52.444;13.578;2022-11-20T12:48:54;24.52;;;18.65;;
22040;SDS011;11184;52.444;13.578;2022-11-20T12:51:51;30.75;;;18.75;;
22040;SDS011;11184;52.444;13.578;2022-11-20T12:57:36;18.75;;;16.27;;
22040;SDS011;11184;52.444;13.578;2022-11-20T13:00:23;18.77;;;15.82;;
22040;SDS011;11184;52.444;13.578;2022-11-20T13:08:49;18.40;;;15.15;;
22040;SDS011;11184;52.444;13.578;2022-11-20T13:11:41;17.15;;;14.23;;
22040;SDS011;11184;52.444;13.578;2022-11-20T13:14:33;12.95;;;11.60;;
22040;SDS011;11184;52.444;13.578;2022-11-20T13:20:12;12.57;;;9.90;;
22040;SDS011;11184;52.444;13.578;2022-11-20T13:22:58;11.55;;;10.35;;
22040;SDS011;11184;52.444;13.578;2022-11-20T13:25:43;11.65;;;9.77;;
22040;SDS011;11184;52.444;13.578;2022-11-20T13:28:28;16.20;;;11.95;;
22040;SDS011;11184;52.444;13.578;2022-11-20T13:31:33;11.65;;;10.45;;
22040;SDS011;11184;52.444;13.578;2022-11-20T13:34:25;15.48;;;11.48;;
22040;SDS011;11184;52.444;13.578;2022-11-20T13:37:23;15.18;;;10.35;;
22040;SDS011;11184;52.444;13.578;2022-11-20T13:45:38;11.88;;;10.25;;
22040;SDS011;11184;52.444;13.578;2022-11-20T13:48:23;10.45;;;9.43;;
22040;SDS011;11184;52.444;13.578;2022-11-20T13:54:01;11.45;;;10.35;;
22040;SDS011;11184;52.444;13.578;2022-11-20T13:59:51;11.15;;;9.82;;
22040;SDS011;11184;52.444;13.578;2022-11-20T14:02:39;15.10;;;11.32;;
22040;SDS011;11184;52.444;13.578;2022-11-20T14:05:24;12.38;;;10.02;;
22040;SDS011;11184;52.444;13.578;2022-11-20T14:08:12;13.95;;;11.93;;
22040;SDS011;11184;52.444;13.578;2022-11-20T14:11:14;20.65;;;12.82;;
22040;SDS011;11184;52.444;13.578;2022-11-20T14:14:01;13.23;;;11.93;;
22040;SDS011;11184;52.444;13.578;2022-11-20T14:16:49;18.25;;;12.43;;
22040;SDS011;11184;52.444;13.578;2022-11-20T14:19:34;15.55;;;12.30;;
22040;SDS011;11184;52.444;13.578;2022-11-20T14:22:21;17.25;;;13.90;;
22040;SDS011;11184;52.444;13.578;2022-11-20T14:25:18;14.27;;;12.88;;
22040;SDS011;11184;52.444;13.578;2022-11-20T14:28:05;15.30;;;13.45;;
22040;SDS011;11184;52.444;13.578;2022-11-20T14:30:51;16.67;;;12.65;;
22040;SDS011;11184;52.444;13.578;2022-11-20T14:33:36;22.35;;;14.52;;
22040;SDS011;11184;52.444;13.578;2022-11-20T14:36:22;16.02;;;12.35;;
22040;SDS011;11184;52.444;13.578;2022-11-20T14:39:09;18.05;;;14.45;;
22040;SDS011;11184;52.444;13.578;2022-11-20T14:41:54;17.42;;;15.00;;
22040;SDS011;11184;52.444;13.578;2022-11-20T14:44:39;17.85;;;12.93;;
22040;SDS011;11184;52.444;13.578;2022-11-20T14:47:24;16.67;;;13.90;;
22040;SDS011;11184;52.444;13.578;2022-11-20T14:50:18;17.98;;;13.70;;
22040;SDS011;11184;52.444;13.578;2022-11-20T14:53:03;17.02;;;13.57;;
22040;SDS011;11184;52.444;13.578;2022-11-20T14:55:53;15.52;;;11.77;;
22040;SDS011;11184;52.444;13.578;2022-11-20T14:58:38;12.98;;;11.68;;
22040;SDS011;11184;52.444;13.578;2022-11-20T15:01:27;14.13;;;12.63;;
22040;SDS011;11184;52.444;13.578;2022-11-20T15:04:14;14.80;;;11.68;;
22040;SDS011;11184;52.444;13.578;2022-11-20T15:06:59;19.30;;;12.95;;
22040;SDS011;11184;52.444;13.578;2022-11-20T15:09:44;16.75;;;12.15;;
22040;SDS011;11184;52.444;13.578;2022-11-20T15:12:29;13.30;;;11.95;;
22040;SDS011;11184;52.444;13.578;2022-11-20T15:15:15;13.70;;;12.20;;
22040;SDS011;11184;52.444;13.578;2022-11-20T15:18:01;14.90;;;12.63;;
22040;SDS011;11184;52.444;13.578;2022-11-20T15:20:46;13.52;;;11.70;;
22040;SDS011;11184;52.444;13.578;2022-11-20T15:23:31;14.30;;;12.60;;
22040;SDS011;11184;52.444;13.578;2022-11-20T15:26:23;15.85;;;12.55;;
22040;SDS011;11184;52.444;13.578;2022-11-20T15:29:12;12.90;;;11.18;;
22040;SDS011;11184;52.444;13.578;2022-11-20T15:31:57;15.23;;;13.15;;
22040;SDS011;11184;52.444;13.578;2022-11-20T15:34:42;12.98;;;11.50;;
22040;SDS011;11184;52.444;13.578;2022-11-20T15:37:27;18.05;;;14.05;;
22040;SDS011;11184;52.444;13.578;2022-11-20T15:40:12;16.08;;;13.60;;
22040;SDS011;11184;52.444;13.578;2022-11-20T15:42:56;15.82;;;13.52;;
22040;SDS011;11184;52.444;13.578;2022-11-20T15:45:48;14.73;;;12.48;;
22040;SDS011;11184;52.444;13.578;2022-11-20T15:48:38;14.25;;;12.10;;
22040;SDS011;11184;52.444;13.578;2022-11-20T15:51:36;15.65;;;12.90;;
22040;SDS011;11184;52.444;13.578;2022-11-20T15:54:22;18.33;;;12.93;;
22040;SDS011;11184;52.444;13.578;2022-11-20T15:57:06;17.45;;;12.45;;
22040;SDS011;11184;52.444;13.578;2022-11-20T15:59:51;18.55;;;15.13;;
22040;SDS011;11184;52.444;13.578;2022-11-20T16:02:36;19.70;;;14.52;;
22040;SDS011;11184;52.444;13.578;2022-11-20T16:05:20;19.13;;;14.10;;
22040;SDS011;11184;52.444;13.578;2022-11-20T16:08:06;16.55;;;14.80;;
22040;SDS011;11184;52.444;13.578;2022-11-20T16:10:51;16.65;;;14.32;;
22040;SDS011;11184;52.444;13.578;2022-11-20T16:13:36;16.42;;;14.27;;
22040;SDS011;11184;52.444;13.578;2022-11-20T16:16:39;17.70;;;14.80;;
22040;SDS011;11184;52.444;13.578;2022-11-20T16:19:25;20.75;;;14.93;;
22040;SDS011;11184;52.444;13.578;2022-11-20T16:22:10;16.42;;;14.60;;
22040;SDS011;11184;52.444;13.578;2022-11-20T16:24:55;17.92;;;13.77;;
22040;SDS011;11184;52.444;13.578;2022-11-20T16:27:39;18.30;;;14.05;;
22040;SDS011;11184;52.444;13.578;2022-11-20T16:30:24;18.48;;;14.20;;
22040;SDS011;11184;52.444;13.578;2022-11-20T16:36:14;20.02;;;15.65;;
22040;SDS011;11184;52.444;13.578;2022-11-20T16:39:02;18.05;;;14.80;;
22040;SDS011;11184;52.444;13.578;2022-11-20T16:41:47;16.27;;;14.45;;
22040;SDS011;11184;52.444;13.578;2022-11-20T16:44:32;16.90;;;13.70;;
22040;SDS011;11184;52.444;13.578;2022-11-20T16:47:17;19.00;;;15.02;;
22040;SDS011;11184;52.444;13.578;2022-11-20T16:50:02;21.60;;;13.80;;
22040;SDS011;11184;52.444;13.578;2022-11-20T16:52:47;18.98;;;15.35;;
22040;SDS011;11184;52.444;13.578;2022-11-20T16:55:37;20.00;;;13.77;;
22040;SDS011;11184;52.444;13.578;2022-11-20T16:58:22;18.92;;;15.43;;
22040;SDS011;11184;52.444;13.578;2022-11-20T17:01:07;20.60;;;13.80;;
22040;SDS011;11184;52.444;13.578;2022-11-20T17:03:54;19.70;;;14.30;;
22040;SDS011;11184;52.444;13.578;2022-11-20T17:06:40;17.02;;;15.18;;
22040;SDS011;11184;52.444;13.578;2022-11-20T17:09:26;17.20;;;13.60;;
22040;SDS011;11184;52.444;13.578;2022-11-20T17:12:11;16.27;;;14.05;;
22040;SDS011;11184;52.444;13.578;2022-11-20T17:14:56;16.50;;;14.52;;
22040;SDS011;11184;52.444;13.578;2022-11-20T17:17:40;19.35;;;15.63;;
22040;SDS011;11184;52.444;13.578;2022-11-20T17:20:25;16.92;;;15.20;;
22040;SDS011;11184;52.444;13.578;2022-11-20T17:23:09;19.15;;;14.30;;
22040;SDS011;11184;52.444;13.578;2022-11-20T17:26:01;17.02;;;13.98;;